createdAt,value
2022-08-02T00:00:34.437Z,99081.03
2022-08-02T00:03:01.379Z,99083.78
2022-08-02T00:05:28.258Z,99086.03
2022-08-02T00:07:55.077Z,99098.22
2022-08-02T00:10:21.922Z,99077.97
2022-08-02T00:12:48.742Z,99087.16
2022-08-02T00:15:16.015Z,99073.91
2022-08-02T00:17:44.279Z,99080.13
2022-08-02T00:20:12.589Z,99090.03
2022-08-02T00:22:39.673Z,99082.41
2022-08-02T00:25:07.225Z,99082.03
2022-08-02T00:27:34.087Z,99096.09
2022-08-02T00:30:00.915Z,99083.69
2022-08-02T00:32:27.751Z,99092.75
2022-08-02T00:34:54.589Z,99076.78
2022-08-02T00:37:21.416Z,99099.44
2022-08-02T00:39:48.253Z,99107.78
2022-08-02T00:42:16.010Z,99101.84
2022-08-02T00:44:43.269Z,99109.09
2022-08-02T00:47:11.246Z,99089.06
2022-08-02T00:49:45.842Z,99098.59
2022-08-02T00:52:12.922Z,99112.06
2022-08-02T00:54:39.924Z,99082.97
2022-08-02T00:57:06.878Z,99093.22
2022-08-02T00:59:33.718Z,99089.19
2022-08-02T01:02:00.605Z,99092.63
2022-08-02T01:04:31.415Z,99093.97
2022-08-02T01:07:00.703Z,99091.94
2022-08-02T01:09:28.123Z,99089.78
2022-08-02T01:11:54.972Z,99092.78
2022-08-02T01:14:24.605Z,99084.44
2022-08-02T01:17:07.548Z,99084.91
2022-08-02T01:20:08.304Z,99093.03
2022-08-02T01:23:03.133Z,99091.59
2022-08-02T01:25:57.988Z,99092.19
2022-08-02T01:28:48.760Z,99097.31
2022-08-02T01:31:56.169Z,99094.94
2022-08-02T01:34:34.204Z,99076.81
2022-08-02T01:37:28.485Z,99103.50
2022-08-02T01:40:03.730Z,99100.41
2022-08-02T01:42:32.410Z,99114.47
2022-08-02T01:45:01.628Z,99099.13
2022-08-02T01:47:34.179Z,99112.56
2022-08-02T01:50:03.147Z,99112.81
2022-08-02T01:52:33.922Z,99116.13
2022-08-02T01:55:18.660Z,99105.88
2022-08-02T01:57:50.955Z,99103.75
2022-08-02T02:00:20.125Z,99110.41
2022-08-02T02:02:49.652Z,99109.13
2022-08-02T02:05:26.476Z,99104.94
2022-08-02T02:07:58.021Z,99112.56
2022-08-02T02:10:32.120Z,99122.25
2022-08-02T02:13:04.089Z,99127.25
2022-08-02T02:15:31.843Z,99116.88
2022-08-02T02:18:12.840Z,99121.75
2022-08-02T02:20:42.634Z,99126.06
2022-08-02T02:23:10.955Z,99134.88
2022-08-02T02:25:46.849Z,99115.91
2022-08-02T02:28:30.860Z,99118.06
2022-08-02T02:31:21.521Z,99122.84
2022-08-02T02:34:02.119Z,99112.09
2022-08-02T02:36:30.899Z,99117.09
2022-08-02T02:39:02.098Z,99102.56
2022-08-02T02:41:30.270Z,99108.41
2022-08-02T02:44:01.921Z,99106.38
2022-08-02T02:46:31.306Z,99108.53
2022-08-02T02:48:59.000Z,99099.22
2022-08-02T02:51:26.303Z,99094.81
2022-08-02T02:54:29.836Z,99110.09
2022-08-02T02:56:42.960Z,99113.66
2022-08-02T02:59:10.783Z,99108.75
2022-08-02T03:01:57.322Z,99101.13
2022-08-02T03:04:25.606Z,99110.44
2022-08-02T03:06:52.486Z,99107.22
2022-08-02T03:09:19.336Z,99117.13
2022-08-02T03:11:47.456Z,99108.75
2022-08-02T03:14:14.582Z,99101.25
2022-08-02T03:16:52.096Z,99097.31
2022-08-02T03:19:21.745Z,99091.00
2022-08-02T03:21:57.395Z,99107.69
2022-08-02T03:24:35.046Z,99102.91
2022-08-02T03:27:01.863Z,99083.13
2022-08-02T03:29:31.476Z,99100.41
2022-08-02T03:32:01.292Z,99080.97
2022-08-02T03:34:28.156Z,99105.91
2022-08-02T03:36:56.851Z,99108.41
2022-08-02T03:39:25.173Z,99103.03
2022-08-02T03:41:53.009Z,99100.66
2022-08-02T03:44:20.109Z,99122.84
2022-08-02T03:46:47.284Z,99115.69
2022-08-02T03:49:16.533Z,99119.50
2022-08-02T03:51:45.353Z,99102.91
2022-08-02T03:54:12.451Z,99110.09
2022-08-02T03:56:39.872Z,99114.47
2022-08-02T03:59:12.543Z,99116.03
2022-08-02T04:01:39.916Z,99123.88
2022-08-02T04:04:07.705Z,99122.00
2022-08-02T04:06:34.581Z,99107.06
2022-08-02T04:09:01.599Z,99125.22
2022-08-02T04:11:31.064Z,99133.31
2022-08-02T04:14:00.966Z,99132.13
2022-08-02T04:16:52.851Z,99142.63
2022-08-02T04:19:26.823Z,99137.38
2022-08-02T04:21:54.858Z,99136.31
2022-08-02T04:24:32.087Z,99131.66
2022-08-02T04:27:06.593Z,99139.50
2022-08-02T04:29:47.956Z,99149.03
2022-08-02T04:32:16.978Z,99140.81
2022-08-02T04:35:17.620Z,99140.94
2022-08-02T04:37:35.552Z,99157.75
2022-08-02T04:40:02.428Z,99162.38
2022-08-02T04:42:29.235Z,99154.28
2022-08-02T04:44:56.101Z,99155.25
2022-08-02T04:48:03.286Z,99149.53
2022-08-02T04:50:10.389Z,99170.53
2022-08-02T04:52:37.238Z,99153.47
2022-08-02T04:55:04.515Z,99166.94
2022-08-02T04:57:53.106Z,99151.78
2022-08-02T05:00:20.522Z,99162.91
2022-08-02T05:02:47.973Z,99153.09
2022-08-02T05:05:15.537Z,99157.78
2022-08-02T05:07:42.623Z,99143.47
2022-08-02T05:10:09.638Z,99156.22
2022-08-02T05:12:38.850Z,99154.66
2022-08-02T05:15:06.575Z,99155.03
2022-08-02T05:17:36.553Z,99162.19
2022-08-02T05:20:05.429Z,99143.81
2022-08-02T05:22:32.445Z,99159.44
2022-08-02T05:24:59.280Z,99155.13
2022-08-02T05:27:26.124Z,99143.22
2022-08-02T05:29:56.979Z,99154.91
2022-08-02T05:32:25.206Z,99135.00
2022-08-02T05:34:53.522Z,99146.56
2022-08-02T05:37:20.338Z,99158.00
2022-08-02T05:39:55.054Z,99160.50
2022-08-02T05:42:23.437Z,99155.50
2022-08-02T05:44:50.294Z,99140.72
2022-08-02T05:47:17.140Z,99132.25
2022-08-02T05:49:43.983Z,99151.31
2022-08-02T05:52:17.381Z,99151.44
2022-08-02T05:55:06.238Z,99160.28
2022-08-02T05:57:48.640Z,99157.16
2022-08-02T06:00:16.357Z,99167.31
2022-08-02T06:02:44.628Z,99157.41
2022-08-02T06:05:18.875Z,99156.00
2022-08-02T06:07:48.638Z,99157.16
2022-08-02T06:10:19.008Z,99136.53
2022-08-02T06:13:16.750Z,99159.44
2022-08-02T06:15:53.199Z,99158.34
2022-08-02T06:18:27.934Z,99147.25
2022-08-02T06:22:29.668Z,99166.69
2022-08-02T06:23:57.683Z,99149.66
2022-08-02T06:26:28.324Z,99140.47
2022-08-02T06:28:57.914Z,99156.91
2022-08-02T06:31:25.173Z,99159.28
2022-08-02T06:33:53.220Z,99162.63
2022-08-02T06:36:40.449Z,99161.81
2022-08-02T06:39:13.157Z,99134.72
2022-08-02T06:41:42.433Z,99169.31
2022-08-02T06:44:43.022Z,99161.44
2022-08-02T06:47:11.134Z,99153.56
2022-08-02T06:49:51.804Z,99149.97
2022-08-02T06:52:31.234Z,99135.56
2022-08-02T06:55:00.129Z,99144.25
2022-08-02T06:57:29.014Z,99136.63
2022-08-02T06:59:55.948Z,99148.25
2022-08-02T07:02:22.915Z,99143.72
2022-08-02T07:04:49.887Z,99154.34
2022-08-02T07:07:16.832Z,99151.59
2022-08-02T07:09:56.829Z,99137.53
2022-08-02T07:12:30.488Z,99161.00
2022-08-02T07:14:59.341Z,99150.38
2022-08-02T07:17:26.232Z,99161.34
2022-08-02T07:19:53.241Z,99155.13
2022-08-02T07:22:23.137Z,99161.34
2022-08-02T07:24:50.912Z,99152.50
2022-08-02T07:27:17.768Z,99165.50
2022-08-02T07:29:45.999Z,99155.19
2022-08-02T07:32:17.833Z,99153.94
2022-08-02T07:34:51.147Z,99166.63
2022-08-02T07:37:53.997Z,99160.06
2022-08-02T07:40:15.314Z,99169.38
2022-08-02T07:42:49.792Z,99168.63
2022-08-02T07:45:16.847Z,99160.16
2022-08-02T07:47:44.787Z,99169.53
2022-08-02T07:50:14.232Z,99163.75
2022-08-02T07:52:42.458Z,99165.16
2022-08-02T07:55:11.077Z,99166.81
2022-08-02T07:57:45.398Z,99163.38
2022-08-02T08:00:15.937Z,99166.69
2022-08-02T08:02:43.060Z,99167.91
2022-08-02T08:05:10.123Z,99170.56
2022-08-02T08:07:37.015Z,99161.94
2022-08-02T08:10:06.292Z,99177.13
2022-08-02T08:12:33.161Z,99164.28
2022-08-02T08:15:00.027Z,99182.69
2022-08-02T08:17:26.937Z,99175.78
2022-08-02T08:19:53.900Z,99169.94
2022-08-02T08:22:21.600Z,99160.78
2022-08-02T08:24:48.892Z,99142.78
2022-08-02T08:27:16.904Z,99164.09
2022-08-02T08:29:44.462Z,99160.22
2022-08-02T08:32:17.543Z,99173.00
2022-08-02T08:34:46.453Z,99166.13
2022-08-02T08:37:17.016Z,99176.97
2022-08-02T08:39:58.180Z,99181.16
2022-08-02T08:42:30.876Z,99169.25
2022-08-02T08:44:59.381Z,99173.69
2022-08-02T08:47:34.463Z,99148.84
2022-08-02T08:50:11.709Z,99173.56
2022-08-02T08:53:02.598Z,99172.34
2022-08-02T08:55:32.222Z,99164.19
2022-08-02T08:58:01.107Z,99167.16
2022-08-02T09:00:31.895Z,99157.41
2022-08-02T09:03:02.485Z,99164.22
2022-08-02T09:05:29.371Z,99152.84
2022-08-02T09:07:56.253Z,99157.00
2022-08-02T09:10:39.361Z,99161.34
2022-08-02T09:13:38.664Z,99156.31
2022-08-02T09:16:12.976Z,99147.03
2022-08-02T09:18:46.648Z,99154.09
2022-08-02T09:21:16.641Z,99147.56
2022-08-02T09:23:47.414Z,99141.19
2022-08-02T09:26:20.631Z,99167.00
2022-08-02T09:28:52.763Z,99161.56
2022-08-02T09:31:23.294Z,99153.25
2022-08-02T09:33:56.312Z,99152.44
2022-08-02T09:36:24.207Z,99144.22
2022-08-02T09:39:00.103Z,99138.97
2022-08-02T09:41:33.685Z,99140.59
2022-08-02T09:44:06.177Z,99128.25
2022-08-02T09:46:42.810Z,99137.13
2022-08-02T09:49:14.058Z,99125.06
2022-08-02T09:51:50.743Z,99133.22
2022-08-02T09:54:21.910Z,99135.38
2022-08-02T09:56:51.186Z,99124.19
2022-08-02T09:59:20.088Z,99127.72
2022-08-02T10:01:51.343Z,99117.97
2022-08-02T10:04:34.315Z,99124.09
2022-08-02T10:07:18.765Z,99123.31
2022-08-02T10:09:47.650Z,99121.47
2022-08-02T10:12:15.516Z,99117.66
2022-08-02T10:14:43.858Z,99116.72
2022-08-02T10:17:10.801Z,99120.59
2022-08-02T10:20:02.213Z,99123.53
2022-08-02T10:22:25.901Z,99115.06
2022-08-02T10:24:53.884Z,99112.56
2022-08-02T10:27:21.640Z,99111.81
2022-08-02T10:29:55.086Z,99115.44
2022-08-02T10:32:38.029Z,99117.72
2022-08-02T10:35:19.641Z,99111.31
2022-08-02T10:37:56.838Z,99099.88
2022-08-02T10:40:23.887Z,99092.63
2022-08-02T10:42:53.457Z,99101.13
2022-08-02T10:45:22.766Z,99095.41
2022-08-02T10:48:19.534Z,99095.50
2022-08-02T10:50:46.422Z,99101.47
2022-08-02T10:53:27.377Z,99099.03
2022-08-02T10:56:01.145Z,99099.09
2022-08-02T10:58:32.421Z,99081.91
2022-08-02T11:01:38.285Z,99081.53
2022-08-02T11:04:10.452Z,99075.66
2022-08-02T11:07:20.454Z,99086.25
2022-08-02T11:09:49.701Z,99071.09
2022-08-02T11:12:19.853Z,99080.44
2022-08-02T11:15:01.066Z,99075.66
2022-08-02T11:17:38.283Z,99072.13
2022-08-02T11:20:10.992Z,99061.13
2022-08-02T11:22:42.915Z,99065.56
2022-08-02T11:25:24.937Z,99066.94
2022-08-02T11:28:09.622Z,99057.25
2022-08-02T11:30:37.294Z,99053.50
2022-08-02T11:33:04.935Z,99058.19
2022-08-02T11:35:38.126Z,99058.50
2022-08-02T11:38:21.230Z,99055.25
2022-08-02T11:40:49.495Z,99041.59
2022-08-02T11:43:21.943Z,99031.50
2022-08-02T11:45:52.278Z,99042.94
2022-08-02T11:48:31.940Z,99036.97
2022-08-02T11:51:13.300Z,99030.94
2022-08-02T11:53:50.402Z,99035.03
2022-08-02T11:56:25.752Z,99038.47
2022-08-02T11:59:03.686Z,99034.44
2022-08-02T12:01:32.291Z,99026.59
2022-08-02T12:04:07.163Z,99022.47
2022-08-02T12:06:36.713Z,99031.59
2022-08-02T12:09:18.283Z,99020.91
2022-08-02T12:11:50.871Z,99024.25
2022-08-02T12:14:18.223Z,99018.41
2022-08-02T12:17:04.483Z,99033.56
2022-08-02T12:19:31.400Z,99028.88
2022-08-02T12:22:19.754Z,99030.38
2022-08-02T12:24:54.156Z,99020.44
2022-08-02T12:27:30.975Z,99026.16
2022-08-02T12:30:27.510Z,99008.16
2022-08-02T12:33:13.050Z,99016.94
2022-08-02T12:35:40.217Z,99004.84
2022-08-02T12:38:11.854Z,99017.13
2022-08-02T12:40:39.110Z,99011.66
2022-08-02T12:43:08.732Z,99028.16
2022-08-02T12:45:49.022Z,99017.66
2022-08-02T12:48:36.660Z,98993.31
2022-08-02T12:51:59.048Z,99004.25
2022-08-02T12:54:32.616Z,99006.69
2022-08-02T12:57:14.741Z,98993.50
2022-08-02T12:59:44.452Z,98986.38
2022-08-02T13:02:14.432Z,98984.53
2022-08-02T13:04:41.950Z,98978.13
2022-08-02T13:07:18.222Z,98988.91
2022-08-02T13:09:46.741Z,98971.88
2022-08-02T13:12:14.013Z,98983.31
2022-08-02T13:14:42.626Z,98970.66
2022-08-02T13:17:11.569Z,98986.69
2022-08-02T13:19:38.839Z,98981.28
2022-08-02T13:22:08.608Z,98979.28
2022-08-02T13:24:55.271Z,98979.75
2022-08-02T13:27:25.833Z,98979.56
2022-08-02T13:29:54.583Z,98972.81
2022-08-02T13:32:22.238Z,98968.97
2022-08-02T13:34:49.113Z,98975.38
2022-08-02T13:37:16.363Z,98970.63
2022-08-02T13:40:00.170Z,98950.50
2022-08-02T13:42:30.280Z,98958.31
2022-08-02T13:44:57.101Z,98944.50
2022-08-02T13:47:36.445Z,98952.78
2022-08-02T13:50:11.227Z,98953.56
2022-08-02T13:52:38.107Z,98934.44
2022-08-02T13:55:05.461Z,98944.34
2022-08-02T13:57:39.606Z,98950.44
2022-08-02T14:00:09.457Z,98933.78
2022-08-02T14:02:40.190Z,98941.16
2022-08-02T14:05:07.787Z,98923.66
2022-08-02T14:07:34.606Z,98936.19
2022-08-02T14:10:01.410Z,98926.75
2022-08-02T14:12:28.245Z,98927.31
2022-08-02T14:14:55.065Z,98931.19
2022-08-02T14:17:21.868Z,98908.53
2022-08-02T14:19:48.735Z,98935.50
2022-08-02T14:22:15.583Z,98932.84
2022-08-02T14:24:42.905Z,98934.13
2022-08-02T14:27:10.410Z,98934.06
2022-08-02T14:29:37.258Z,98926.34
2022-08-02T14:32:04.349Z,98916.63
2022-08-02T14:34:31.844Z,98927.34
2022-08-02T14:36:58.651Z,98915.31
2022-08-02T14:39:25.476Z,98926.84
2022-08-02T14:41:59.987Z,98916.44
2022-08-02T14:44:28.968Z,98921.47
2022-08-02T14:46:56.164Z,98930.22
2022-08-02T14:49:24.513Z,98920.03
2022-08-02T14:51:51.947Z,98924.13
2022-08-02T14:54:18.829Z,98911.94
2022-08-02T14:56:45.765Z,98910.25
2022-08-02T14:59:15.100Z,98907.72
2022-08-02T15:01:41.973Z,98916.19
2022-08-02T15:04:08.923Z,98904.09
2022-08-02T15:06:35.753Z,98899.91
2022-08-02T15:09:02.582Z,98904.28
2022-08-02T15:11:29.426Z,98919.56
2022-08-02T15:13:59.084Z,98901.81
2022-08-02T15:16:47.398Z,98897.00
2022-08-02T15:19:13.872Z,98902.63
2022-08-02T15:21:52.491Z,98900.72
2022-08-02T15:24:21.637Z,98904.63
2022-08-02T15:26:50.190Z,98887.22
2022-08-02T15:29:18.577Z,98894.75
2022-08-02T15:31:45.590Z,98900.13
2022-08-02T15:34:12.674Z,98891.38
2022-08-02T15:36:39.739Z,98881.53
2022-08-02T15:39:06.626Z,98886.09
2022-08-02T15:41:33.536Z,98875.22
2022-08-02T15:44:01.892Z,98897.44
2022-08-02T15:46:30.778Z,98890.91
2022-08-02T15:48:59.915Z,98881.81
2022-08-02T15:51:27.253Z,98881.97
2022-08-02T15:53:54.156Z,98880.25
2022-08-02T15:56:23.910Z,98872.00
2022-08-02T15:58:56.095Z,98890.50
2022-08-02T16:01:35.220Z,98885.38
2022-08-02T16:04:07.212Z,98877.88
2022-08-02T16:06:35.508Z,98871.66
2022-08-02T16:09:02.962Z,98887.94
2022-08-02T16:11:30.140Z,98873.38
2022-08-02T16:13:58.989Z,98876.44
2022-08-02T16:16:30.753Z,98879.25
2022-08-02T16:18:59.394Z,98880.56
2022-08-02T16:21:48.202Z,98873.72
2022-08-02T16:24:15.076Z,98861.69
2022-08-02T16:26:42.128Z,98864.00
2022-08-02T16:29:09.544Z,98867.75
2022-08-02T16:31:41.642Z,98866.34
2022-08-02T16:34:09.423Z,98862.72
2022-08-02T16:36:36.647Z,98862.81
2022-08-02T16:39:04.664Z,98863.06
2022-08-02T16:41:50.266Z,98862.91
2022-08-02T16:44:18.435Z,98860.81
2022-08-02T16:47:00.988Z,98850.72
2022-08-02T16:50:05.061Z,98850.75
2022-08-02T16:52:16.792Z,98850.97
2022-08-02T16:54:49.902Z,98857.22
2022-08-02T16:57:19.744Z,98858.13
2022-08-02T16:59:57.847Z,98855.56
2022-08-02T17:02:28.648Z,98859.00
2022-08-02T17:04:56.754Z,98854.66
2022-08-02T17:08:15.971Z,98845.72
2022-08-02T17:10:10.893Z,98842.53
2022-08-02T17:12:39.363Z,98841.16
2022-08-02T17:16:08.148Z,98856.50
2022-08-02T17:17:56.464Z,98852.75
2022-08-02T17:20:24.496Z,98850.66
2022-08-02T17:22:52.412Z,98845.81
2022-08-02T17:25:20.492Z,98847.03
2022-08-02T17:30:34.620Z,98834.91
2022-08-02T17:33:01.459Z,98840.31
2022-08-02T17:35:43.264Z,98853.22
2022-08-02T17:38:18.133Z,98856.72
2022-08-02T17:40:55.108Z,98854.34
2022-08-02T17:43:22.036Z,98854.19
2022-08-02T17:46:01.024Z,98868.50
2022-08-02T17:48:50.027Z,98868.84
2022-08-02T17:51:33.065Z,98874.19
2022-08-02T17:54:08.390Z,98866.56
2022-08-02T17:56:36.988Z,98871.72
2022-08-02T17:59:31.146Z,98866.03
2022-08-02T18:02:09.213Z,98875.59
2022-08-02T18:04:38.762Z,98866.16
2022-08-02T18:07:07.397Z,98865.22
2022-08-02T18:09:36.921Z,98857.81
2022-08-02T18:12:03.917Z,98868.97
2022-08-02T18:14:30.777Z,98863.69
2022-08-02T18:16:57.652Z,98873.53
2022-08-02T18:19:33.086Z,98862.69
2022-08-02T18:22:10.501Z,98869.38
2022-08-02T18:24:38.162Z,98865.50
2022-08-02T18:27:05.040Z,98871.66
2022-08-02T18:29:38.600Z,98865.75
2022-08-02T18:32:06.395Z,98869.66
2022-08-02T18:34:39.155Z,98866.91
2022-08-02T18:37:06.862Z,98876.25
2022-08-02T18:39:34.974Z,98882.75
2022-08-02T18:42:05.455Z,98869.69
2022-08-02T18:44:32.273Z,98874.94
2022-08-02T18:47:00.478Z,98876.75
2022-08-02T18:49:46.803Z,98872.34
2022-08-02T18:52:15.585Z,98880.31
2022-08-02T18:54:42.670Z,98878.06
2022-08-02T18:57:59.688Z,98866.84
2022-08-02T18:59:57.518Z,98867.38
2022-08-02T19:02:24.935Z,98872.56
2022-08-02T19:04:55.005Z,98869.25
2022-08-02T19:07:22.559Z,98872.25
2022-08-02T19:09:49.672Z,98875.75
2022-08-02T19:12:22.575Z,98893.34
2022-08-02T19:14:55.648Z,98875.59
2022-08-02T19:17:54.026Z,98873.66
2022-08-02T19:20:11.170Z,98880.94
2022-08-02T19:22:46.663Z,98880.31
2022-08-02T19:25:21.104Z,98889.09
2022-08-02T19:27:55.011Z,98887.59
2022-08-02T19:30:22.287Z,98880.31
2022-08-02T19:32:59.756Z,98881.69
2022-08-02T19:36:01.489Z,98897.88
2022-08-02T19:38:26.423Z,98893.59
2022-08-02T19:40:54.337Z,98895.38
2022-08-02T19:44:26.417Z,98880.31
2022-08-02T19:46:15.650Z,98904.66
2022-08-02T19:48:42.985Z,98898.03
2022-08-02T19:51:13.044Z,98905.47
2022-08-02T19:53:48.331Z,98908.31
2022-08-02T19:56:21.224Z,98911.09
2022-08-02T19:58:51.539Z,98919.03
2022-08-02T20:01:23.784Z,98914.38
2022-08-02T20:03:55.260Z,98887.00
2022-08-02T20:06:28.556Z,98919.81
2022-08-02T20:08:59.316Z,98925.41
2022-08-02T20:11:35.064Z,98910.44
2022-08-02T20:14:04.665Z,98904.28
2022-08-02T20:16:33.331Z,98928.25
2022-08-02T20:19:02.269Z,98925.25
2022-08-02T20:21:35.323Z,98932.00
2022-08-02T20:24:09.118Z,98933.69
2022-08-02T20:26:38.183Z,98915.44
2022-08-02T20:29:05.547Z,98927.38
2022-08-02T20:31:32.540Z,98890.81
2022-08-02T20:34:00.369Z,98920.66
2022-08-02T20:36:28.369Z,98902.84
2022-08-02T20:38:55.551Z,98920.88
2022-08-02T20:41:37.089Z,98938.06
2022-08-02T20:44:16.289Z,98919.16
2022-08-02T20:50:07.717Z,98932.09
2022-08-02T20:52:37.284Z,98932.25
2022-08-02T20:55:04.333Z,98908.50
2022-08-02T21:00:18.182Z,98938.25
2022-08-02T21:02:47.558Z,98940.53
2022-08-02T21:05:15.444Z,98930.72
2022-08-02T21:07:47.768Z,98938.66
2022-08-02T21:10:14.863Z,98938.59
2022-08-02T21:12:41.692Z,98937.38
2022-08-02T21:15:12.536Z,98941.31
2022-08-02T21:17:46.662Z,98941.63
2022-08-02T21:20:19.191Z,98932.63
2022-08-02T21:22:55.323Z,98932.78
2022-08-02T21:25:24.019Z,98948.66
2022-08-02T21:28:09.332Z,98930.50
2022-08-02T21:30:44.489Z,98926.19
2022-08-02T21:33:18.107Z,98937.06
2022-08-02T21:35:52.166Z,98933.75
2022-08-02T21:38:35.610Z,98926.44
2022-08-02T21:41:06.943Z,98929.66
2022-08-02T21:43:40.270Z,98921.53
2022-08-02T21:46:10.649Z,98923.78
2022-08-02T21:48:41.698Z,98921.19
2022-08-02T21:51:08.528Z,98921.88
2022-08-02T21:53:43.166Z,98931.47
2022-08-02T21:56:10.798Z,98929.81
2022-08-02T21:58:37.731Z,98914.56
2022-08-02T22:01:05.102Z,98922.38
2022-08-02T22:03:32.581Z,98941.78
2022-08-02T22:05:59.857Z,98937.09
2022-08-02T22:08:26.695Z,98925.94
2022-08-02T22:11:03.284Z,98923.28
2022-08-02T22:13:38.845Z,98935.50
2022-08-02T22:16:14.617Z,98931.78
2022-08-02T22:18:52.472Z,98940.66
2022-08-02T22:21:20.614Z,98940.25
2022-08-02T22:23:51.224Z,98933.91
2022-08-02T22:26:19.106Z,98928.22
2022-08-02T22:28:51.111Z,98947.53
2022-08-02T22:31:40.693Z,98956.09
2022-08-02T22:34:11.631Z,98949.25
2022-08-02T22:36:53.432Z,98946.72
2022-08-02T22:39:20.316Z,98970.88
2022-08-02T22:42:06.268Z,98963.81
2022-08-02T22:44:35.227Z,98930.59
2022-08-02T22:47:06.992Z,98958.56
2022-08-02T22:49:52.867Z,98959.41
2022-08-02T22:52:21.806Z,98948.06
2022-08-02T22:54:48.825Z,98954.56
2022-08-02T22:57:18.061Z,98941.28
2022-08-02T22:58:38.444Z,98844.50
2022-08-02T22:59:06.416Z,98918.34
2022-08-02T22:59:06.519Z,98930.00
2022-08-02T22:59:58.837Z,98958.75
2022-08-02T23:02:26.283Z,98956.25
2022-08-02T23:04:53.171Z,98963.72
2022-08-02T23:07:19.998Z,98968.75
2022-08-02T23:09:46.809Z,98951.84
2022-08-02T23:12:18.974Z,98969.03
2022-08-02T23:14:47.389Z,98961.28
2022-08-02T23:17:32.976Z,98961.84
2022-08-02T23:19:59.807Z,98957.81
2022-08-02T23:22:30.008Z,98964.22
2022-08-02T23:25:00.192Z,98971.13
2022-08-02T23:27:27.462Z,98968.63
2022-08-02T23:29:54.386Z,98962.56
2022-08-02T23:32:22.828Z,98965.19
2022-08-02T23:34:52.679Z,98962.41
2022-08-02T23:37:19.508Z,98958.22
2022-08-02T23:39:46.645Z,98976.81
2022-08-02T23:42:13.525Z,98960.47
2022-08-02T23:44:40.562Z,98945.91
2022-08-02T23:47:07.573Z,98958.53
2022-08-02T23:49:34.491Z,98973.63
2022-08-02T23:52:02.103Z,98964.06
2022-08-02T23:54:29.151Z,98948.84
2022-08-02T23:56:56.067Z,98975.16
2022-08-02T23:59:23.177Z,98951.06
